Time;durP1;ratioP1;P1;durP2;ratioP2;P2;SDS_P1;SDS_P2;PMS_P1;PMS_P2;Temp;Humidity;BMP_temperature;BMP_pressure;BME280_temperature;BME280_humidity;BME280_pressure;Samples;Min_cycle;Max_cycle;Signal;HPM_P1;HPM_P2
2022/04/01 00:02:25;;;;;;;21.02;5.18;;;;;;;16.71;53.27;98826.69;5130222;27;20031;-32
2022/04/01 00:04:51;;;;;;;24.50;7.82;;;;;;;16.68;52.51;98811.91;5129738;27;20030;-29
2022/04/01 00:07:17;;;;;;;20.55;5.25;;;;;;;16.70;52.12;98787.41;5130063;27;20034;-31
2022/04/01 00:09:42;;;;;;;23.52;8.10;;;;;;;16.86;51.68;98769.97;5129851;27;20483;-29
2022/04/01 00:12:09;;;;;;;19.52;4.20;;;;;;;16.98;51.35;98771.41;5111247;27;20038;-32
2022/04/01 00:14:35;;;;;;;24.92;4.70;;;;;;;16.99;51.29;98765.75;5111566;27;20035;-29
2022/04/01 00:17:00;;;;;;;19.65;3.88;;;;;;;17.06;51.14;98784.22;5129619;27;20046;-30
2022/04/01 00:19:26;;;;;;;21.27;5.75;;;;;;;16.62;52.36;98753.06;5111618;27;20031;-29
2022/04/01 00:21:53;;;;;;;28.30;8.63;;;;;;;16.76;52.54;98775.47;5110551;27;20496;-32
2022/04/01 00:24:19;;;;;;;19.00;6.65;;;;;;;16.95;51.86;98785.47;5129396;27;20081;-33
2022/04/01 00:26:45;;;;;;;20.13;6.47;;;;;;;16.91;51.46;98765.59;5129792;27;20475;-32
2022/04/01 00:29:17;;;;;;;24.13;8.00;;;;;;;16.99;51.52;98746.09;5129462;27;20024;-35
2022/04/01 00:31:49;;;;;;;21.80;7.80;;;;;;;16.71;51.86;98735.16;5129828;27;20046;-30
2022/04/01 00:34:16;;;;;;;23.75;5.85;;;;;;;16.69;51.97;98672.75;5110705;27;20515;-29
2022/04/01 00:36:51;;;;;;;21.15;4.30;;;;;;;16.72;51.70;98645.25;5110931;27;20032;-30
2022/04/01 00:39:19;;;;;;;19.83;4.88;;;;;;;16.46;52.00;98669.84;5129623;27;20045;-31
2022/04/01 00:41:46;;;;;;;25.98;5.03;;;;;;;16.44;52.47;98704.31;5111039;27;20710;-31
2022/04/01 00:44:17;;;;;;;20.63;4.23;;;;;;;16.42;53.09;98687.66;5110836;27;20146;-29
2022/04/01 00:46:45;;;;;;;20.27;5.43;;;;;;;16.25;53.87;98700.84;5110870;27;20300;-31
2022/04/01 00:49:11;;;;;;;;;;;;;;;16.06;54.64;98706.19;5110667;27;20058;-30
2022/04/01 00:51:38;;;;;;;21.30;5.18;;;;;;;16.20;54.28;98639.03;5129504;27;19958;-31
2022/04/01 00:54:05;;;;;;;22.40;6.22;;;;;;;15.62;56.06;98659.63;5110719;27;20063;-29
2022/04/01 00:56:33;;;;;;;16.17;5.03;;;;;;;15.72;56.18;98704.44;5127860;27;20027;-30
2022/04/01 00:58:59;;;;;;;19.33;5.53;;;;;;;15.36;57.23;98669.03;5093227;27;20038;-31
2022/04/01 01:01:26;;;;;;;24.77;5.60;;;;;;;15.19;57.95;98654.16;5110465;27;20034;-31
2022/04/01 01:03:52;;;;;;;18.48;5.03;;;;;;;15.04;58.56;98608.69;5110334;27;20579;-28
2022/04/01 01:06:19;;;;;;;23.15;5.82;;;;;;;15.07;58.28;98586.63;5129248;27;20050;-31
2022/04/01 01:08:45;;;;;;;18.40;4.45;;;;;;;15.13;58.86;98598.91;5110488;27;20042;-29
2022/04/01 01:11:11;;;;;;;20.77;5.82;;;;;;;15.08;58.83;98631.19;5110129;27;20039;-32
2022/04/01 01:13:38;;;;;;;29.05;6.75;;;;;;;14.71;60.06;98621.06;5128885;27;20031;-29
2022/04/01 01:16:04;;;;;;;19.83;5.78;;;;;;;14.58;60.58;98611.78;5128898;27;20066;-33
2022/04/01 01:18:29;;;;;;;19.55;5.78;;;;;;;14.61;61.39;98659.53;5128750;27;20103;-29
2022/04/01 01:20:54;;;;;;;21.25;5.53;;;;;;;14.65;61.24;98692.75;5128767;27;20075;-29
2022/04/01 01:23:27;;;;;;;23.95;6.85;;;;;;;14.72;61.30;98652.97;5129018;27;20019;-29
2022/04/01 01:25:52;;;;;;;22.38;5.97;;;;;;;14.68;60.25;98627.00;5110308;27;20154;-29
2022/04/01 01:28:18;;;;;;;19.98;5.65;;;;;;;14.82;59.35;98599.22;5128734;27;20023;-30
2022/04/01 01:30:44;;;;;;;23.88;5.90;;;;;;;14.96;58.63;98585.16;5128369;27;20092;-29
2022/04/01 01:33:10;;;;;;;24.23;6.35;;;;;;;14.93;58.31;98586.50;5127867;27;20125;-29
2022/04/01 01:35:35;;;;;;;21.92;5.78;;;;;;;15.18;56.94;98606.13;5110104;28;20042;-29
2022/04/01 01:38:01;;;;;;;31.92;7.53;;;;;;;15.31;55.90;98546.34;5128441;28;20031;-29
2022/04/01 01:40:27;;;;;;;25.35;7.03;;;;;;;15.36;55.98;98535.53;5128622;28;20483;-30
2022/04/01 01:42:52;;;;;;;37.05;6.75;;;;;;;15.36;55.86;98557.03;5128134;28;20072;-33
2022/04/01 01:45:19;;;;;;;30.52;5.70;;;;;;;15.23;55.93;98609.56;5109827;28;20045;-33
2022/04/01 01:47:45;;;;;;;24.88;5.72;;;;;;;15.29;55.37;98593.41;5110011;28;20019;-31
2022/04/01 01:55:39;;;;;;;25.40;7.32;;;;;;;15.57;53.33;98567.53;5128560;28;20130;-32
2022/04/01 01:58:05;;;;;;;23.02;6.78;;;;;;;15.77;52.81;98602.25;5128206;28;20110;-31
2022/04/01 02:00:31;;;;;;;22.25;7.47;;;;;;;15.72;52.62;98607.69;5109941;28;20094;-30
2022/04/01 02:02:56;;;;;;;27.08;7.28;;;;;;;15.94;51.28;98607.13;5128268;28;20065;-29
2022/04/01 02:05:22;;;;;;;35.25;6.80;;;;;;;15.70;51.32;98560.66;5128354;28;20063;-30
2022/04/01 02:07:47;;;;;;;31.48;6.43;;;;;;;15.91;51.37;98570.06;5128095;28;20027;-29
2022/04/01 02:10:15;;;;;;;31.30;7.35;;;;;;;16.03;51.32;98548.91;5128231;28;20049;-29
2022/04/01 02:12:42;;;;;;;28.60;6.70;;;;;;;15.93;51.83;98538.31;5109591;28;20027;-31
2022/04/01 02:15:10;;;;;;;28.48;6.75;;;;;;;15.98;51.67;98518.63;5128023;28;20390;-30
2022/04/01 02:17:40;;;;;;;33.63;8.30;;;;;;;15.87;52.61;98569.03;5109976;28;20068;-29
2022/04/01 02:20:09;;;;;;;26.35;6.05;;;;;;;15.98;52.15;98550.91;5128156;28;20111;-29
2022/04/01 02:22:37;;;;;;;31.33;7.53;;;;;;;15.94;52.89;98545.28;5128150;28;20102;-30
2022/04/01 02:25:04;;;;;;;;;;;;;;;16.02;52.84;98547.31;5109456;28;20041;-31
2022/04/01 02:27:30;;;;;;;39.27;8.47;;;;;;;15.91;52.58;98524.34;5109611;28;20014;-30
2022/04/01 02:29:56;;;;;;;34.13;8.52;;;;;;;15.90;52.40;98500.47;5128350;28;20031;-29
2022/04/01 02:32:23;;;;;;;54.22;10.27;;;;;;;15.98;50.21;98519.41;5109565;28;20050;-29
2022/04/01 02:34:49;;;;;;;43.47;8.55;;;;;;;16.13;48.89;98510.31;5128048;28;20036;-33
2022/04/01 02:37:15;;;;;;;46.85;8.43;;;;;;;16.21;48.72;98538.44;5128328;28;20050;-32
2022/04/01 02:39:40;;;;;;;35.88;7.70;;;;;;;16.19;48.66;98519.09;5109481;28;20506;-33
2022/04/01 02:42:06;;;;;;;29.80;8.30;;;;;;;16.08;49.22;98480.81;5128434;28;20459;-29
2022/04/01 02:44:33;;;;;;;35.92;6.90;;;;;;;15.99;49.96;98477.97;5130373;27;20020;-29
2022/04/01 02:46:58;;;;;;;28.98;6.50;;;;;;;16.15;49.50;98496.56;5131483;27;20058;-33
2022/04/01 02:49:24;;;;;;;35.40;7.10;;;;;;;16.02;49.27;98492.75;5132072;27;20065;-30
2022/04/01 02:51:53;;;;;;;28.92;6.85;;;;;;;16.05;49.18;98497.53;5131580;27;20030;-29
2022/04/01 02:54:20;;;;;;;25.98;6.40;;;;;;;15.97;49.00;98504.38;5131294;27;20030;-31
2022/04/01 02:56:46;;;;;;;28.48;6.47;;;;;;;16.05;48.98;98525.22;5131773;27;20026;-30
2022/04/01 02:59:11;;;;;;;37.95;7.57;;;;;;;16.21;48.59;98522.28;5131443;27;20470;-31
2022/04/01 03:01:41;;;;;;;25.13;5.97;;;;;;;16.21;48.95;98531.16;5131525;27;20039;-29
2022/04/01 03:04:09;;;;;;;38.97;6.97;;;;;;;16.24;48.28;98537.84;5113696;27;20679;-29
2022/04/01 03:06:36;;;;;;;40.97;11.70;;;;;;;16.35;48.16;98523.13;5129870;27;20027;-29
2022/04/01 03:09:01;;;;;;;31.92;6.72;;;;;;;16.48;47.63;98560.03;5112529;27;20034;-30
2022/04/01 03:11:27;;;;;;;43.10;8.40;;;;;;;16.44;47.86;98542.09;5131679;27;20043;-30
2022/04/01 03:13:52;;;;;;;36.28;8.90;;;;;;;16.60;47.40;98570.34;5131211;27;20499;-29
2022/04/01 03:16:18;;;;;;;27.92;7.53;;;;;;;16.45;47.62;98576.78;5131376;27;20030;-32
2022/04/01 03:18:43;;;;;;;38.38;8.40;;;;;;;16.47;47.70;98579.19;5131079;27;20055;-29
2022/04/01 03:21:10;;;;;;;33.63;9.13;;;;;;;16.54;47.80;98586.88;5130834;27;20031;-29
2022/04/01 03:23:40;;;;;;;33.13;7.47;;;;;;;16.39;48.06;98588.72;5112390;27;20082;-32
2022/04/01 03:26:07;;;;;;;24.60;7.07;;;;;;;16.45;48.46;98571.41;5131021;27;20077;-29
2022/04/01 03:28:34;;;;;;;32.10;7.63;;;;;;;16.26;49.36;98573.31;5112340;27;20023;-29
2022/04/01 03:31:03;;;;;;;28.42;7.75;;;;;;;16.11;50.17;98570.88;5129667;27;20037;-31
2022/04/01 03:33:30;;;;;;;59.30;23.10;;;;;;;15.92;50.34;98563.59;5130639;27;20068;-30
2022/04/01 03:35:58;;;;;;;38.22;12.50;;;;;;;16.02;49.72;98563.47;5112259;27;20062;-29
2022/04/01 03:38:23;;;;;;;40.75;10.68;;;;;;;16.23;49.19;98553.19;5130904;27;20061;-33
2022/04/01 03:40:51;;;;;;;35.67;8.90;;;;;;;16.27;48.85;98561.47;5130491;27;20023;-29
2022/04/01 03:43:18;;;;;;;29.45;8.93;;;;;;;16.02;49.80;98560.75;5111909;27;20072;-30
2022/04/01 03:45:48;;;;;;;37.78;8.80;;;;;;;16.18;48.68;98561.34;5111662;27;20023;-30
2022/04/01 03:48:54;;;;;;;40.17;7.40;;;;;;;16.33;47.37;98565.69;5111693;27;20034;-30
2022/04/01 03:51:24;;;;;;;34.30;7.13;;;;;;;16.21;48.25;98538.44;5129737;27;20503;-29
2022/04/01 03:53:55;;;;;;;37.40;7.85;;;;;;;16.42;46.99;98561.22;5130754;27;20031;-30
2022/04/01 03:56:39;;;;;;;48.33;8.38;;;;;;;16.58;47.12;98563.66;5111723;27;20027;-31
2022/04/01 03:59:08;;;;;;;52.33;12.95;;;;;;;16.66;46.64;98565.69;5130397;27;20070;-36
2022/04/01 04:01:35;;;;;;;47.90;9.18;;;;;;;16.83;45.71;98567.81;5111760;27;20023;-29
2022/04/01 04:04:01;;;;;;;41.70;9.50;;;;;;;16.83;45.80;98560.53;5130393;27;20031;-31
2022/04/01 04:06:27;;;;;;;32.17;7.90;;;;;;;16.87;45.53;98561.53;5111755;27;20128;-34
2022/04/01 04:08:57;;;;;;;39.08;8.65;;;;;;;16.67;46.74;98562.69;5129800;27;20031;-31
2022/04/01 04:11:28;;;;;;;45.72;8.25;;;;;;;16.91;45.85;98566.34;5111227;27;20543;-33
2022/04/01 04:13:58;;;;;;;38.83;9.57;;;;;;;16.78;45.26;98562.53;5111434;27;20128;-29
2022/04/01 04:16:39;;;;;;;37.13;9.02;;;;;;;16.54;47.80;98570.72;5111358;27;20038;-34
2022/04/01 04:19:14;;;;;;;39.22;10.52;;;;;;;16.53;48.14;98569.13;5110840;27;20506;-30
2022/04/01 04:22:08;;;;;;;32.83;7.35;;;;;;;16.17;49.95;98569.69;5129566;27;20027;-29
2022/04/01 04:25:04;;;;;;;39.50;8.32;;;;;;;16.14;49.50;98591.78;5110880;27;20029;-30
2022/04/01 04:27:30;;;;;;;35.60;7.97;;;;;;;15.97;49.86;98566.22;5129604;27;20517;-29
2022/04/01 04:30:08;;;;;;;34.88;8.73;;;;;;;16.04;50.21;98563.19;5129341;27;20027;-30
2022/04/01 04:32:50;;;;;;;47.40;9.65;;;;;;;16.06;50.83;98594.06;5102490;28;20031;-29
2022/04/01 04:35:20;;;;;;;90.57;26.40;;;;;;;15.68;52.49;98593.97;5090600;28;20130;-32
2022/04/01 04:37:46;;;;;;;56.58;17.20;;;;;;;15.75;52.79;98579.41;5090410;28;20034;-29
2022/04/01 04:40:15;;;;;;;41.00;10.60;;;;;;;15.41;54.18;98591.09;5107281;28;20031;-29
2022/04/01 04:42:45;;;;;;;46.15;13.93;;;;;;;15.76;53.49;98592.56;5089895;28;20038;-30
2022/04/01 04:45:12;;;;;;;36.50;9.88;;;;;;;15.93;52.74;98602.81;5111113;27;20031;-34
2022/04/01 04:47:41;;;;;;;46.47;14.15;;;;;;;15.67;53.75;98588.88;5098277;28;20050;-33
2022/04/01 04:50:08;;;;;;;80.40;28.73;;;;;;;15.56;54.62;98611.63;5102868;27;20119;-30
2022/04/01 04:52:34;;;;;;;57.92;17.50;;;;;;;15.42;55.12;98617.66;5110394;27;20039;-29
2022/04/01 04:55:06;;;;;;;81.32;24.55;;;;;;;15.01;56.32;98593.13;5094885;28;20035;-29
2022/04/01 04:57:33;;;;;;;110.10;34.30;;;;;;;15.17;56.40;98620.63;5090051;28;20039;-29
2022/04/01 05:00:00;;;;;;;102.82;33.78;;;;;;;15.11;56.74;98619.88;5090036;28;20093;-36
2022/04/01 05:02:42;;;;;;;178.95;60.38;;;;;;;15.23;57.28;98625.66;5108284;28;20110;-29
2022/04/01 05:05:18;;;;;;;186.43;52.05;;;;;;;15.25;56.95;98625.38;5107991;28;20106;-29
2022/04/01 05:07:59;;;;;;;84.32;32.00;;;;;;;15.36;56.26;98626.06;5089068;28;20080;-34
2022/04/01 05:10:34;;;;;;;51.25;13.82;;;;;;;15.47;55.88;98600.72;5089794;28;20034;-30
2022/04/01 05:13:20;;;;;;;52.20;22.50;;;;;;;15.77;55.35;98620.25;5107995;28;20126;-30
2022/04/01 05:15:52;;;;;;;43.88;17.45;;;;;;;15.61;55.33;98600.78;5089707;28;20027;-31
2022/04/01 05:18:40;;;;;;;42.38;16.20;;;;;;;15.78;55.28;98619.16;5089917;28;20448;-31
2022/04/01 05:21:32;;;;;;;43.42;15.20;;;;;;;15.83;54.86;98621.78;5089673;28;20031;-32
2022/04/01 05:24:01;;;;;;;43.60;16.15;;;;;;;15.94;54.53;98609.81;5089737;28;20434;-29
2022/04/01 05:26:40;;;;;;;37.90;11.60;;;;;;;16.04;54.37;98620.44;5089330;28;20089;-29
2022/04/01 05:29:14;;;;;;;49.35;18.27;;;;;;;16.13;54.96;98622.47;5107763;28;20498;-29
2022/04/01 05:32:05;;;;;;;36.17;13.82;;;;;;;16.21;55.21;98613.75;5108216;28;20059;-31
2022/04/01 05:34:46;;;;;;;41.72;17.80;;;;;;;16.27;55.05;98602.59;5107542;28;20430;-34
2022/04/01 05:37:14;;;;;;;37.45;11.18;;;;;;;16.29;55.24;98606.91;5108089;28;20032;-30
2022/04/01 05:39:46;;;;;;;41.67;13.15;;;;;;;16.24;55.41;98602.38;5089657;28;20039;-31
2022/04/01 05:42:13;;;;;;;47.30;10.00;;;;;;;16.31;55.13;98597.44;5107802;28;20027;-30
2022/04/01 05:44:42;;;;;;;36.42;10.20;;;;;;;16.24;55.16;98581.69;5107761;28;20032;-32
2022/04/01 05:47:07;;;;;;;31.15;8.68;;;;;;;16.27;55.84;98596.44;5088787;28;20156;-33
2022/04/01 05:49:39;;;;;;;31.33;9.68;;;;;;;16.44;55.05;98577.84;5107915;28;20110;-33
2022/04/01 05:52:05;;;;;;;34.88;9.88;;;;;;;16.61;54.82;98592.66;5089404;28;20028;-30
2022/04/01 05:54:34;;;;;;;42.20;10.93;;;;;;;16.44;54.35;98579.75;5089368;28;20028;-30
2022/04/01 05:57:00;;;;;;;32.00;9.45;;;;;;;16.71;53.87;98599.78;5089069;28;20020;-31
2022/04/01 05:59:26;;;;;;;34.97;9.95;;;;;;;16.64;53.81;98579.41;5089272;28;20035;-32
2022/04/01 06:02:13;;;;;;;35.17;10.90;;;;;;;16.92;53.87;98589.47;5088942;28;20089;-31
2022/04/01 06:04:47;;;;;;;39.90;11.75;;;;;;;17.11;53.40;98582.13;5089093;28;20032;-31
2022/04/01 06:07:26;;;;;;;38.47;10.63;;;;;;;17.30;52.70;98586.63;5107676;28;20027;-32
2022/04/01 06:10:05;;;;;;;33.60;9.68;;;;;;;17.30;52.74;98586.63;5089275;28;20046;-30
2022/04/01 06:12:34;;;;;;;31.27;8.77;;;;;;;17.30;52.44;98583.94;5089511;28;20023;-30
2022/04/01 06:15:17;;;;;;;37.60;9.65;;;;;;;17.42;52.32;98584.22;5107439;28;20123;-35
2022/04/01 06:17:45;;;;;;;37.28;9.13;;;;;;;17.48;52.01;98580.34;5089214;28;20534;-29
2022/04/01 06:20:13;;;;;;;37.63;10.75;;;;;;;17.67;51.75;98580.22;5110938;28;20024;-32
2022/04/01 06:22:50;;;;;;;36.45;9.48;;;;;;;17.73;51.68;98575.50;5092738;28;20035;-31
2022/04/01 06:25:20;;;;;;;33.60;10.75;;;;;;;17.87;50.58;98570.91;5111505;28;20032;-31
2022/04/01 06:27:54;;;;;;;34.95;12.25;;;;;;;17.79;50.33;98558.13;5092977;28;20810;-30
2022/04/01 06:30:21;;;;;;;33.97;9.52;;;;;;;17.92;50.91;98575.41;5092760;28;20028;-31
2022/04/01 06:32:49;;;;;;;37.70;10.50;;;;;;;18.11;50.33;98586.06;5110938;28;20169;-29
2022/04/01 06:35:28;;;;;;;30.30;8.38;;;;;;;18.20;49.86;98581.50;5111036;28;20039;-29
2022/04/01 06:37:55;;;;;;;30.20;8.68;;;;;;;18.34;49.74;98576.84;5111276;28;20039;-29
2022/04/01 06:40:23;;;;;;;35.38;11.43;;;;;;;18.34;48.72;98559.88;5111104;28;20528;-30
2022/04/01 06:42:52;;;;;;;34.53;10.18;;;;;;;18.48;48.29;98591.09;5092587;28;20122;-30
2022/04/01 06:45:18;;;;;;;33.00;10.52;;;;;;;18.53;49.22;98565.06;5110882;28;20096;-31
2022/04/01 06:47:45;;;;;;;37.83;9.98;;;;;;;18.48;48.23;98574.88;5111013;28;20065;-29
2022/04/01 06:50:12;;;;;;;32.90;8.90;;;;;;;18.59;47.74;98563.84;5092882;28;20034;-31
2022/04/01 06:52:38;;;;;;;31.80;9.50;;;;;;;18.94;47.62;98567.56;5092586;28;20085;-31
2022/04/01 06:55:08;;;;;;;36.38;11.60;;;;;;;19.09;46.73;98533.94;5092425;28;20023;-31
2022/04/01 06:57:34;;;;;;;32.42;10.27;;;;;;;19.41;46.05;98551.69;5110759;28;20032;-29
2022/04/01 07:00:00;;;;;;;35.78;9.70;;;;;;;19.75;45.05;98560.22;5092202;28;20028;-32
2022/04/01 07:02:25;;;;;;;33.10;9.65;;;;;;;19.83;46.76;98554.78;5092260;28;20098;-29
2022/04/01 07:04:51;;;;;;;31.70;9.45;;;;;;;20.09;44.70;98558.66;5110476;28;20114;-29
2022/04/01 07:07:17;;;;;;;28.65;9.05;;;;;;;20.02;45.50;98568.03;5092196;28;20495;-34
2022/04/01 07:09:43;;;;;;;33.70;7.50;;;;;;;19.71;43.40;98557.31;5109000;28;20415;-34
2022/04/01 07:12:08;;;;;;;23.75;7.10;;;;;;;20.10;45.52;98573.75;5110799;28;20023;-34
2022/04/01 07:14:35;;;;;;;35.90;9.73;;;;;;;19.97;44.60;98562.78;5110064;28;20506;-33
2022/04/01 07:17:01;;;;;;;36.60;8.60;;;;;;;19.91;42.73;98574.88;5091976;28;20561;-31
2022/04/01 07:19:27;;;;;;;35.10;8.63;;;;;;;20.09;43.99;98553.22;5091982;28;20028;-29
2022/04/01 07:21:53;;;;;;;40.70;9.73;;;;;;;20.58;43.33;98559.22;5110242;28;20106;-39
2022/04/01 07:24:19;;;;;;;29.23;8.43;;;;;;;20.24;42.58;98550.03;5110404;28;20118;-29
2022/04/01 07:26:45;;;;;;;25.33;7.43;;;;;;;20.36;41.75;98563.72;5091646;28;20041;-29
2022/04/01 07:29:14;;;;;;;35.90;8.70;;;;;;;20.54;43.25;98553.66;5090899;28;20036;-31
2022/04/01 07:34:35;;;;;;;35.03;8.65;;;;;;;20.62;42.70;98539.34;5109966;28;20066;-32
2022/04/01 07:37:01;;;;;;;39.45;9.88;;;;;;;20.92;42.33;98549.44;5091435;28;20076;-29
2022/04/01 07:39:27;;;;;;;37.80;8.77;;;;;;;20.88;41.95;98562.81;5091236;28;20746;-31
2022/04/01 07:41:53;;;;;;;35.47;7.95;;;;;;;20.76;42.78;98560.81;5091172;28;20063;-31
2022/04/01 07:44:19;;;;;;;29.83;7.90;;;;;;;20.75;42.41;98548.38;5109879;28;20028;-29
2022/04/01 07:46:45;;;;;;;32.97;8.50;;;;;;;20.72;42.89;98559.03;5109861;28;20148;-29
2022/04/01 07:49:10;;;;;;;41.28;8.90;;;;;;;20.86;42.16;98544.19;5109430;28;20491;-32
2022/04/01 07:51:36;;;;;;;36.10;9.75;;;;;;;21.12;42.15;98554.13;5109550;28;20161;-33
2022/04/01 07:54:01;;;;;;;45.30;10.02;;;;;;;21.17;42.20;98555.88;5109536;28;20027;-29
2022/04/01 07:56:30;;;;;;;31.45;9.02;;;;;;;21.44;41.50;98551.94;5109618;28;20568;-29
2022/04/01 07:58:59;;;;;;;34.03;8.32;;;;;;;21.51;40.86;98551.41;5074665;28;20034;-32
2022/04/01 08:01:25;;;;;;;37.92;8.77;;;;;;;21.37;40.39;98551.63;5109501;28;20028;-30
2022/04/01 08:03:50;;;;;;;38.30;10.65;;;;;;;21.59;41.29;98556.78;5109524;28;20482;-30
2022/04/01 08:06:17;;;;;;;34.28;8.82;;;;;;;21.54;39.73;98537.22;5109220;28;20502;-30
2022/04/01 08:08:43;;;;;;;42.63;8.45;;;;;;;21.43;40.50;98553.06;5109040;28;20028;-34
2022/04/01 08:11:08;;;;;;;35.28;8.48;;;;;;;21.32;41.20;98538.25;5091141;28;20036;-32
2022/04/01 08:13:34;;;;;;;37.50;8.38;;;;;;;21.73;41.46;98558.47;5090960;28;20070;-30
2022/04/01 08:16:00;;;;;;;31.77;8.00;;;;;;;21.78;40.09;98552.81;5090955;28;20149;-29
2022/04/01 08:18:26;;;;;;;31.48;8.50;;;;;;;21.80;38.94;98550.56;5090825;28;20035;-33
2022/04/01 08:20:53;;;;;;;30.55;8.65;;;;;;;21.75;39.09;98539.94;5090611;28;20038;-29
2022/04/01 08:23:19;;;;;;;28.85;6.47;;;;;;;21.76;38.94;98527.94;5090141;28;20042;-32
2022/04/01 08:25:46;;;;;;;33.47;9.10;;;;;;;21.89;40.24;98529.63;5090638;28;20023;-30
2022/04/01 08:28:12;;;;;;;36.10;8.50;;;;;;;22.09;38.80;98536.16;5090435;28;20038;-31
2022/04/01 08:30:38;;;;;;;36.50;8.93;;;;;;;22.04;39.59;98539.84;5090541;28;20122;-31
2022/04/01 08:33:04;;;;;;;34.63;8.52;;;;;;;21.88;39.23;98533.44;5089800;28;20461;-31
2022/04/01 08:35:30;;;;;;;21.77;6.88;;;;;;;21.63;39.53;98518.94;5090317;28;20088;-29
2022/04/01 08:37:58;;;;;;;34.17;7.85;;;;;;;21.77;40.16;98529.53;5108355;28;20031;-29
2022/04/01 08:40:25;;;;;;;34.88;7.57;;;;;;;22.00;39.92;98541.63;5108789;28;20027;-32
2022/04/01 08:42:51;;;;;;;;;;;;;;;22.03;40.62;98538.28;5108672;28;20039;-29
2022/04/01 08:45:18;;;;;;;32.10;7.75;;;;;;;21.96;39.98;98538.00;5108719;28;20402;-29
2022/04/01 08:47:44;;;;;;;38.22;9.50;;;;;;;21.75;41.24;98510.88;5090253;28;20144;-32
2022/04/01 08:50:10;;;;;;;30.33;6.88;;;;;;;21.46;40.58;98530.72;5090160;28;20032;-32
2022/04/01 08:52:36;;;;;;;54.55;9.20;;;;;;;21.59;40.06;98520.72;5108303;28;20031;-36
2022/04/01 08:55:08;;;;;;;33.03;8.70;;;;;;;21.77;41.19;98521.41;5108519;28;20031;-30
2022/04/01 08:57:42;;;;;;;28.50;7.70;;;;;;;21.72;40.34;98535.16;5090422;28;20054;-30
2022/04/01 09:00:13;;;;;;;35.00;8.05;;;;;;;21.47;40.19;98518.72;5108417;28;20074;-30
2022/04/01 09:02:39;;;;;;;25.80;8.38;;;;;;;21.39;40.33;98504.09;5089868;28;20055;-31
2022/04/01 09:05:06;;;;;;;29.60;6.47;;;;;;;21.81;39.85;98514.19;5089599;28;20713;-29
2022/04/01 09:07:32;;;;;;;37.60;8.17;;;;;;;21.85;41.47;98507.75;5089857;28;20031;-29
2022/04/01 09:10:05;;;;;;;23.02;6.90;;;;;;;21.93;40.24;98521.63;5108336;28;20403;-32
2022/04/01 09:12:31;;;;;;;22.38;6.70;;;;;;;21.67;40.29;98509.81;5108207;28;20027;-31
2022/04/01 09:14:58;;;;;;;38.65;7.78;;;;;;;21.50;40.88;98501.81;5107999;28;20518;-31
2022/04/01 09:17:41;;;;;;;33.00;8.10;;;;;;;21.75;40.43;98515.50;5089330;28;20023;-31
2022/04/01 09:20:07;;;;;;;36.03;7.60;;;;;;;21.61;39.90;98499.50;5089642;28;20126;-29
2022/04/01 09:22:34;;;;;;;28.05;7.07;;;;;;;21.61;41.39;98503.00;5107916;28;20039;-32
2022/04/01 09:25:08;;;;;;;28.77;6.45;;;;;;;21.98;40.00;98489.59;5089325;28;20028;-30
2022/04/01 09:27:39;;;;;;;40.00;8.52;;;;;;;21.93;39.31;98487.13;5089442;28;20027;-29
2022/04/01 09:30:07;;;;;;;38.50;8.55;;;;;;;22.40;39.74;98477.91;5107568;28;20099;-33
2022/04/01 09:32:41;;;;;;;37.13;9.18;;;;;;;22.02;39.25;98484.31;5089247;28;20031;-29
2022/04/01 09:35:10;;;;;;;28.23;6.55;;;;;;;22.15;38.66;98488.69;5107965;28;20047;-30
2022/04/01 09:37:43;;;;;;;29.75;7.25;;;;;;;22.20;39.77;98480.31;5107831;28;20055;-31
2022/04/01 09:40:10;;;;;;;37.28;8.27;;;;;;;22.18;38.47;98468.19;5089635;28;20438;-31
2022/04/01 09:42:36;;;;;;;25.08;6.63;;;;;;;21.90;38.64;98452.50;5089255;28;20126;-29
2022/04/01 09:45:03;;;;;;;32.22;8.18;;;;;;;22.21;38.28;98454.75;5089282;28;20460;-32
2022/04/01 09:47:36;;;;;;;21.90;7.00;;;;;;;22.23;38.67;98446.25;5089597;28;20039;-30
2022/04/01 09:50:09;;;;;;;32.10;6.97;;;;;;;22.70;38.32;98459.50;5089536;28;20469;-29
2022/04/01 09:52:36;;;;;;;26.67;5.88;;;;;;;23.09;38.21;98440.97;5089947;28;20035;-29
2022/04/01 09:55:03;;;;;;;31.30;7.95;;;;;;;22.74;37.45;98449.56;5111637;28;20023;-29
2022/04/01 09:57:29;;;;;;;36.58;8.27;;;;;;;22.70;37.87;98443.22;5093555;28;20090;-32
2022/04/01 09:59:55;;;;;;;33.80;7.88;;;;;;;22.66;38.34;98461.31;5093591;28;20023;-29
2022/04/01 10:02:21;;;;;;;26.33;6.63;;;;;;;22.50;38.21;98449.53;5093831;28;20037;-29
2022/04/01 10:04:46;;;;;;;35.38;7.90;;;;;;;22.75;38.18;98450.34;5111566;28;20479;-34
2022/04/01 10:07:12;;;;;;;36.83;8.73;;;;;;;22.57;38.36;98444.31;5093181;28;20043;-31
2022/04/01 10:09:39;;;;;;;29.05;6.60;;;;;;;22.83;37.57;98444.00;5111302;28;20130;-34
2022/04/01 10:12:10;;;;;;;32.03;7.70;;;;;;;22.87;37.24;98436.75;5093395;28;20584;-37
2022/04/01 10:14:40;;;;;;;35.47;8.10;;;;;;;22.84;37.66;98411.06;5093172;28;20038;-32
2022/04/01 10:17:10;;;;;;;40.85;8.40;;;;;;;22.77;37.86;98423.63;5093054;28;20028;-29
2022/04/01 10:19:39;;;;;;;35.83;7.95;;;;;;;22.84;38.20;98408.34;5111379;28;20264;-33
2022/04/01 10:22:06;;;;;;;29.63;6.63;;;;;;;23.06;37.23;98401.63;5093039;28;20055;-31
2022/04/01 10:24:54;;;;;;;30.02;6.82;;;;;;;23.03;37.81;98420.59;5092979;28;20027;-32
2022/04/01 10:27:32;;;;;;;29.27;7.43;;;;;;;23.34;37.42;98411.00;5093046;28;20055;-30
2022/04/01 10:29:57;;;;;;;25.73;7.07;;;;;;;23.20;37.21;98390.41;5092744;28;20035;-32
2022/04/01 10:32:29;;;;;;;31.02;7.25;;;;;;;23.35;36.88;98401.69;5111011;28;20024;-37
2022/04/01 10:34:57;;;;;;;34.63;7.45;;;;;;;23.50;36.04;98403.69;5111105;28;20053;-29
2022/04/01 10:37:25;;;;;;;26.90;5.97;;;;;;;23.13;36.05;98387.47;5111158;28;20392;-30
2022/04/01 10:40:07;;;;;;;37.08;7.65;;;;;;;23.49;36.43;98401.31;5092759;28;20031;-30
2022/04/01 10:42:38;;;;;;;30.13;8.02;;;;;;;23.76;38.06;98395.09;5111343;28;20038;-33
2022/04/01 10:45:22;;;;;;;36.95;8.48;;;;;;;24.08;35.55;98406.06;5092112;28;20028;-29
2022/04/01 10:53:55;;;;;;;29.88;6.50;;;;;;;23.62;36.33;98373.72;5111249;28;20115;-30
2022/04/01 10:56:26;;;;;;;33.03;7.32;;;;;;;23.80;36.04;98384.31;5110939;28;20114;-30
2022/04/01 10:59:13;;;;;;;23.70;7.05;;;;;;;23.73;36.12;98397.72;5092312;28;20024;-33
2022/04/01 11:01:40;;;;;;;31.37;9.87;;;;;;;23.37;36.90;98374.94;5110756;28;20066;-32
2022/04/01 11:04:09;;;;;;;41.90;8.48;;;;;;;23.91;37.17;98379.19;5091814;28;20260;-35
2022/04/01 11:06:52;;;;;;;42.13;7.80;;;;;;;24.01;35.87;98368.56;5092136;28;20038;-31
2022/04/01 11:09:38;;;;;;;31.20;7.03;;;;;;;23.82;37.15;98358.34;5092121;28;20495;-31
2022/04/01 11:12:19;;;;;;;31.88;9.15;;;;;;;23.70;37.35;98365.75;5091897;28;20092;-29
2022/04/01 11:14:56;;;;;;;44.17;7.80;;;;;;;23.66;37.11;98352.84;5092036;28;20043;-30
2022/04/01 11:17:24;;;;;;;28.58;6.65;;;;;;;23.75;37.18;98339.06;5092070;28;20024;-29
2022/04/01 11:20:11;;;;;;;30.02;7.13;;;;;;;23.77;35.28;98353.16;5110520;28;20042;-42
2022/04/01 11:22:36;;;;;;;29.52;6.50;;;;;;;23.74;37.39;98342.94;5091667;28;20063;-30
2022/04/01 11:25:03;;;;;;;24.45;5.97;;;;;;;24.17;36.30;98337.81;5110046;28;20498;-30
2022/04/01 11:27:28;;;;;;;38.80;8.23;;;;;;;24.50;36.68;98323.03;5091930;28;20035;-30
2022/04/01 11:30:20;;;;;;;40.70;8.02;;;;;;;24.01;35.13;98335.88;5110085;28;20076;-32
2022/04/01 11:32:52;;;;;;;32.47;7.20;;;;;;;23.58;37.10;98304.81;5091708;28;20058;-29
2022/04/01 11:35:21;;;;;;;29.90;8.75;;;;;;;23.60;36.23;98335.19;5110217;28;20040;-32
2022/04/01 11:37:47;;;;;;;30.75;6.63;;;;;;;23.59;36.39;98319.97;5091892;28;20035;-29
2022/04/01 11:40:27;;;;;;;34.75;9.88;;;;;;;23.65;37.08;98296.81;5110286;28;20015;-30
2022/04/01 11:42:54;;;;;;;24.50;6.10;;;;;;;23.73;36.63;98305.19;5109880;28;20039;-30
2022/04/01 11:45:21;;;;;;;28.10;7.50;;;;;;;24.01;36.37;98318.75;5091155;28;20102;-29
2022/04/01 11:47:47;;;;;;;38.92;7.40;;;;;;;23.95;35.72;98315.50;5110044;28;20546;-35
2022/04/01 11:50:15;;;;;;;30.02;6.95;;;;;;;23.91;37.36;98301.00;5109636;28;20030;-33